Cannington, Canada
Current Conditions -  °F | °C
As of 7:00 PM on Thursday 27 Nov 2014 (Local Time) from CYOO Reporting Station
Overcast Overcast  
Wind Chill: 21°   Ceiling: 7000
Heat Index: 28°   Visibility: 9mi
Dew Point: 21°   Wind: 7mph
Humidity: 74%   Direction: 330°NNW
Pressure: 30.08"   Gusts: NA
Location:  44.35°N, 79.03°W
Report Text: CYOO 280000Z AUTO 33006KT 9SM BKN070 OVC091 M02/M06 A3008 RMK SLP193
Loading
Personal Weather Stations






























Interactive Weather Map New forecast layout! Learn more

10-Day Weather Forecast

Advertisements
Track Severe Weather on mobile